Time;durP1;ratioP1;P1;durP2;ratioP2;P2;SDS_P1;SDS_P2;PMS_P1;PMS_P2;Temp;Humidity;BMP_temperature;BMP_pressure;BME280_temperature;BME280_humidity;BME280_pressure;Samples;Min_cycle;Max_cycle;Signal;HPM_P1;HPM_P2
2021/01/06 00:01:27;;;;;;;23.25;7.97;;;4.50;99.90;;;;;;5027942;28;20099;-65
2021/01/06 00:03:53;;;;;;;21.42;7.75;;;4.50;99.90;;;;;;5026761;28;20400;-65
2021/01/06 00:06:29;;;;;;;19.60;6.88;;;4.60;99.90;;;;;;5028971;28;20136;-65
2021/01/06 00:08:56;;;;;;;21.45;6.88;;;4.60;99.90;;;;;;5027075;28;20103;-65
2021/01/06 00:11:50;;;;;;;19.65;7.22;;;4.60;99.90;;;;;;5018424;28;20045;-65
2021/01/06 00:14:16;;;;;;;20.65;6.78;;;4.70;99.90;;;;;;5015698;28;20064;-65
2021/01/06 00:16:49;;;;;;;18.48;7.03;;;4.60;99.90;;;;;;5019248;28;20107;-65
2021/01/06 00:19:16;;;;;;;19.33;7.40;;;4.60;99.90;;;;;;5023586;28;20751;-65
2021/01/06 00:21:43;;;;;;;20.50;7.25;;;4.70;99.90;;;;;;5027199;28;20049;-65
2021/01/06 00:24:09;;;;;;;21.58;7.65;;;4.70;99.90;;;;;;5026365;28;20037;-65
2021/01/06 00:26:37;;;;;;;18.98;6.65;;;4.70;99.90;;;;;;5027388;28;20046;-65
2021/01/06 00:29:08;;;;;;;17.30;6.20;;;4.70;99.90;;;;;;5026769;28;20060;-65
2021/01/06 00:31:37;;;;;;;19.40;6.50;;;4.70;99.90;;;;;;5027615;28;20042;-65
2021/01/06 00:34:04;;;;;;;16.92;5.63;;;4.60;99.90;;;;;;5012734;28;20389;-65
2021/01/06 00:36:30;;;;;;;16.80;5.60;;;4.60;99.90;;;;;;5026027;28;20053;-65
2021/01/06 00:38:57;;;;;;;16.15;5.45;;;4.70;99.90;;;;;;5033885;28;20489;-65
2021/01/06 00:41:32;;;;;;;12.25;4.85;;;4.70;99.90;;;;;;5030808;28;20087;-65
2021/01/06 00:43:59;;;;;;;18.00;5.57;;;4.60;99.90;;;;;;5028171;28;20050;-65
2021/01/06 00:46:32;;;;;;;18.75;6.32;;;4.60;99.90;;;;;;5028033;28;20049;-65
2021/01/06 00:49:00;;;;;;;17.02;5.88;;;4.60;99.90;;;;;;5030707;28;20050;-65
2021/01/06 00:51:28;;;;;;;17.02;5.70;;;4.60;99.90;;;;;;5014426;28;20068;-65
2021/01/06 00:53:54;;;;;;;18.25;5.40;;;4.60;99.90;;;;;;5032330;28;20618;-65
2021/01/06 00:56:31;;;;;;;18.15;5.85;;;4.60;99.90;;;;;;5029565;28;20042;-65
2021/01/06 00:58:59;;;;;;;12.52;4.38;;;4.50;99.90;;;;;;5015501;28;20493;-65
2021/01/06 01:01:28;;;;;;;15.13;5.03;;;4.60;99.90;;;;;;5031272;28;20041;-65
2021/01/06 01:03:57;;;;;;;16.05;5.20;;;4.60;99.90;;;;;;5025173;28;20048;-65
2021/01/06 01:06:30;;;;;;;14.43;5.32;;;4.60;99.90;;;;;;5027350;28;20041;-65
2021/01/06 01:09:03;;;;;;;15.50;4.82;;;4.50;99.90;;;;;;5031701;28;20065;-65
2021/01/06 01:11:30;;;;;;;18.45;5.22;;;4.50;99.90;;;;;;5031318;28;20038;-65
2021/01/06 01:13:56;;;;;;;16.10;5.50;;;4.50;99.90;;;;;;5022577;28;20100;-65
2021/01/06 01:16:23;;;;;;;15.77;5.18;;;4.60;99.90;;;;;;5027661;28;20053;-65
2021/01/06 01:18:50;;;;;;;18.55;5.75;;;4.60;99.90;;;;;;5031613;28;20512;-65
2021/01/06 01:21:19;;;;;;;17.88;6.43;;;4.60;99.90;;;;;;5030792;28;20069;-65
2021/01/06 01:23:45;;;;;;;18.60;6.25;;;4.60;99.90;;;;;;5013546;28;20554;-65
2021/01/06 01:26:12;;;;;;;15.82;5.32;;;4.60;99.90;;;;;;5026326;28;20033;-65
2021/01/06 01:28:39;;;;;;;19.10;5.32;;;4.60;99.90;;;;;;5030388;28;20041;-65
2021/01/06 01:31:06;;;;;;;13.93;4.78;;;4.50;99.90;;;;;;5031743;28;20448;-65
2021/01/06 01:33:32;;;;;;;13.73;5.07;;;4.50;99.90;;;;;;5022483;28;20053;-65
2021/01/06 01:35:59;;;;;;;18.60;6.07;;;4.50;99.90;;;;;;5034419;28;20056;-65
2021/01/06 01:38:30;;;;;;;16.80;4.70;;;4.50;99.90;;;;;;5023331;28;20033;-65
2021/01/06 01:40:58;;;;;;;19.85;5.78;;;4.40;99.90;;;;;;5029642;28;20370;-65
2021/01/06 01:43:25;;;;;;;19.60;5.15;;;4.40;99.90;;;;;;5029329;28;20400;-65
2021/01/06 01:45:52;;;;;;;17.45;5.88;;;4.40;99.90;;;;;;5029894;28;20034;-65
2021/01/06 01:48:30;;;;;;;16.27;5.45;;;4.40;99.90;;;;;;5032610;28;20042;-65
2021/01/06 01:51:12;;;;;;;14.93;5.18;;;4.40;99.90;;;;;;5028304;28;20045;-65
2021/01/06 01:54:08;;;;;;;14.87;5.20;;;4.40;99.90;;;;;;5029007;28;20033;-65
2021/01/06 01:56:37;;;;;;;16.45;5.90;;;4.30;99.90;;;;;;5029077;28;20286;-65
2021/01/06 01:59:08;;;;;;;16.58;5.47;;;4.30;99.90;;;;;;5030318;28;20037;-65
2021/01/06 02:01:37;;;;;;;17.98;5.10;;;4.30;99.90;;;;;;5030033;28;20037;-65
2021/01/06 02:04:11;;;;;;;15.65;4.90;;;4.30;99.90;;;;;;5028843;28;20108;-65
2021/01/06 02:06:53;;;;;;;13.55;5.45;;;4.30;99.90;;;;;;5027781;28;20099;-65
2021/01/06 02:09:41;;;;;;;13.88;5.57;;;4.30;99.90;;;;;;5028983;28;20053;-65
2021/01/06 02:12:16;;;;;;;16.45;4.97;;;4.30;99.90;;;;;;5026761;28;20041;-65
2021/01/06 02:15:31;;;;;;;15.15;5.50;;;4.20;99.90;;;;;;5025210;28;20058;-65
2021/01/06 02:17:57;;;;;;;20.48;5.47;;;4.20;99.90;;;;;;5036023;28;20520;-65
2021/01/06 02:20:26;;;;;;;17.10;4.80;;;4.20;99.90;;;;;;5048591;28;20040;-65
2021/01/06 02:22:54;;;;;;;15.27;5.13;;;4.20;99.90;;;;;;5046428;28;20068;-65
2021/01/06 02:25:23;;;;;;;13.95;5.63;;;4.20;99.90;;;;;;5048286;28;20049;-65
2021/01/06 02:27:50;;;;;;;16.38;5.45;;;4.20;99.90;;;;;;5033254;28;20053;-65
2021/01/06 02:30:18;;;;;;;16.48;5.70;;;4.20;99.90;;;;;;5047456;28;20052;-65
2021/01/06 02:32:45;;;;;;;19.48;6.55;;;4.20;99.90;;;;;;5007145;28;20041;-65
2021/01/06 02:35:13;;;;;;;16.75;6.00;;;4.20;99.90;;;;;;5036742;28;20822;-65
2021/01/06 02:37:40;;;;;;;19.15;5.88;;;4.20;99.90;;;;;;5030899;28;20049;-65
2021/01/06 02:40:09;;;;;;;15.55;5.57;;;4.20;99.90;;;;;;5029843;28;20589;-65
2021/01/06 02:42:37;;;;;;;15.95;4.85;;;4.20;99.90;;;;;;5045819;28;20053;-66
2021/01/06 02:45:09;;;;;;;20.02;6.00;;;4.30;99.90;;;;;;5048129;28;20072;-65
2021/01/06 02:47:37;;;;;;;19.20;5.38;;;4.20;99.90;;;;;;5049382;28;20060;-65
2021/01/06 02:50:08;;;;;;;17.50;5.45;;;4.20;99.90;;;;;;5049141;28;20041;-65
2021/01/06 02:52:55;;;;;;;19.00;5.88;;;4.20;99.90;;;;;;5032564;28;20464;-65
2021/01/06 02:55:24;;;;;;;17.60;5.35;;;4.20;99.90;;;;;;5028489;28;20045;-65
2021/01/06 02:57:52;;;;;;;19.63;6.47;;;4.20;99.90;;;;;;5029444;28;20624;-65
2021/01/06 03:00:24;;;;;;;19.77;5.90;;;4.20;99.90;;;;;;5029242;28;20547;-65
2021/01/06 03:02:51;;;;;;;19.30;5.50;;;4.20;99.90;;;;;;5025772;28;20046;-65
2021/01/06 03:05:25;;;;;;;16.55;5.63;;;4.20;99.90;;;;;;5013280;28;20064;-65
2021/01/06 03:07:52;;;;;;;15.75;5.53;;;4.20;99.90;;;;;;5025655;28;20049;-65
2021/01/06 03:10:20;;;;;;;21.40;6.10;;;4.10;99.90;;;;;;5031786;28;20088;-65
2021/01/06 03:12:52;;;;;;;21.70;6.93;;;4.10;99.90;;;;;;5024009;28;20041;-65
2021/01/06 03:15:21;;;;;;;24.70;6.85;;;4.10;99.90;;;;;;5024444;28;20060;-65
2021/01/06 03:17:49;;;;;;;21.52;6.43;;;4.00;99.90;;;;;;5029103;28;20060;-65
2021/01/06 03:20:24;;;;;;;17.02;6.68;;;4.00;99.90;;;;;;5030228;28;20071;-65
2021/01/06 03:23:02;;;;;;;17.10;6.07;;;4.00;99.90;;;;;;5027198;28;20046;-65
2021/01/06 03:25:30;;;;;;;24.67;6.85;;;4.00;99.90;;;;;;5027863;28;20054;-65
2021/01/06 03:27:57;;;;;;;25.85;6.65;;;3.90;99.90;;;;;;5028852;28;20048;-65
2021/01/06 03:30:30;;;;;;;18.98;6.15;;;3.90;99.90;;;;;;5031022;28;20033;-65
2021/01/06 03:33:22;;;;;;;18.63;6.55;;;3.90;99.90;;;;;;5024507;28;20041;-65
2021/01/06 03:36:00;;;;;;;19.02;6.43;;;3.90;99.90;;;;;;5024859;28;20492;-65
2021/01/06 03:38:42;;;;;;;23.77;6.35;;;3.90;99.90;;;;;;5020848;28;20042;-65
2021/01/06 03:41:09;;;;;;;25.85;6.88;;;3.90;99.90;;;;;;5031748;28;20368;-65
2021/01/06 03:43:41;;;;;;;26.52;8.02;;;3.90;99.90;;;;;;5028393;28;20045;-65
2021/01/06 03:46:33;;;;;;;23.50;7.17;;;3.90;99.90;;;;;;5026803;28;20049;-65
2021/01/06 03:49:18;;;;;;;23.00;6.80;;;3.90;99.90;;;;;;5011282;28;20056;-65
2021/01/06 03:51:55;;;;;;;21.10;7.53;;;3.90;99.90;;;;;;5030555;28;20099;-65
2021/01/06 03:54:41;;;;;;;24.02;7.53;;;3.90;99.90;;;;;;5022993;28;20266;-66
2021/01/06 03:57:08;;;;;;;27.45;8.57;;;3.90;99.90;;;;;;5028011;28;20045;-65
2021/01/06 03:59:38;;;;;;;25.23;8.77;;;3.90;99.90;;;;;;5016140;28;20045;-65
2021/01/06 04:02:13;;;;;;;29.80;7.85;;;3.80;99.90;;;;;;5027490;28;20049;-65
2021/01/06 04:04:44;;;;;;;27.25;8.00;;;3.90;99.90;;;;;;5029426;28;20044;-66
2021/01/06 04:07:34;;;;;;;32.90;7.63;;;3.90;99.90;;;;;;5020424;28;20045;-65
2021/01/06 04:10:08;;;;;;;31.38;9.00;;;3.80;99.90;;;;;;5025637;28;20044;-66
2021/01/06 04:12:35;;;;;;;33.25;8.45;;;3.80;99.90;;;;;;5034826;28;20034;-66
2021/01/06 04:15:04;;;;;;;27.50;8.90;;;3.80;99.90;;;;;;5028730;28;20038;-66
2021/01/06 04:17:36;;;;;;;27.95;7.65;;;3.80;99.90;;;;;;5031369;28;20472;-66
2021/01/06 04:20:15;;;;;;;20.35;7.15;;;3.80;99.90;;;;;;5031830;28;20053;-65
2021/01/06 04:22:41;;;;;;;35.50;7.57;;;3.80;99.90;;;;;;5029916;28;20050;-65
2021/01/06 04:25:26;;;;;;;24.98;6.85;;;3.80;99.90;;;;;;5027063;28;20045;-65
2021/01/06 04:28:00;;;;;;;27.08;8.20;;;3.80;99.90;;;;;;5032903;28;20037;-65
2021/01/06 04:30:41;;;;;;;30.63;8.20;;;3.80;99.90;;;;;;5022581;28;20044;-65
2021/01/06 04:33:16;;;;;;;25.88;6.95;;;3.80;99.90;;;;;;5028056;28;20444;-65
2021/01/06 04:35:42;;;;;;;28.55;7.63;;;3.80;99.90;;;;;;5023704;28;20053;-65
2021/01/06 04:38:15;;;;;;;22.60;7.50;;;3.80;99.90;;;;;;5012705;28;20049;-65
2021/01/06 04:40:45;;;;;;;30.58;9.02;;;3.80;99.90;;;;;;5027355;28;20561;-65
2021/01/06 04:43:25;;;;;;;26.75;8.48;;;3.70;99.90;;;;;;5031945;28;20053;-65
2021/01/06 04:46:17;;;;;;;27.10;7.93;;;3.70;99.90;;;;;;5032912;28;20476;-65
2021/01/06 04:49:00;;;;;;;28.85;8.68;;;3.80;99.90;;;;;;5023173;28;20061;-65
2021/01/06 04:51:30;;;;;;;23.73;6.43;;;3.70;99.90;;;;;;5031000;28;20046;-65
2021/01/06 04:54:15;;;;;;;26.05;7.93;;;3.70;99.90;;;;;;5028167;28;20044;-66
2021/01/06 04:56:59;;;;;;;27.45;7.35;;;3.70;99.90;;;;;;5030975;28;20051;-65
2021/01/06 04:59:53;;;;;;;30.55;8.05;;;3.70;99.90;;;;;;5021874;28;20046;-65
2021/01/06 05:02:36;;;;;;;25.63;7.80;;;3.80;99.90;;;;;;5030515;28;20106;-65
2021/01/06 05:05:23;;;;;;;;;;;3.70;99.90;;;;;;5012309;28;20065;-65
2021/01/06 05:08:01;;;;;;;31.48;8.55;;;3.70;99.90;;;;;;5032990;28;19921;-65
2021/01/06 05:10:50;;;;;;;30.40;7.47;;;3.70;99.90;;;;;;5031342;28;20040;-65
2021/01/06 05:13:25;;;;;;;29.85;8.60;;;3.70;99.90;;;;;;5026901;28;20056;-65
2021/01/06 05:15:59;;;;;;;35.97;8.80;;;3.80;99.90;;;;;;5028168;28;20455;-65
2021/01/06 05:18:26;;;;;;;28.83;7.63;;;3.70;99.90;;;;;;5031580;28;20053;-65
2021/01/06 05:20:56;;;;;;;29.92;8.70;;;3.70;99.90;;;;;;5035403;28;20048;-65
2021/01/06 05:23:28;;;;;;;32.83;8.15;;;3.70;99.90;;;;;;5031300;28;20519;-65
2021/01/06 05:25:59;;;;;;;31.43;9.07;;;3.70;99.90;;;;;;5030377;28;20042;-66
2021/01/06 05:28:26;;;;;;;25.75;7.60;;;3.70;99.90;;;;;;5030846;28;20412;-65
2021/01/06 05:30:55;;;;;;;29.00;8.20;;;3.70;99.90;;;;;;5029427;28;20038;-65
2021/01/06 05:33:26;;;;;;;40.60;9.93;;;3.70;99.90;;;;;;5020698;28;20041;-65
2021/01/06 05:35:53;;;;;;;34.95;8.52;;;3.70;99.90;;;;;;5009536;28;20111;-65
2021/01/06 05:38:20;;;;;;;31.60;8.82;;;3.70;99.90;;;;;;5031108;28;20046;-65
2021/01/06 05:40:47;;;;;;;25.33;7.85;;;3.70;99.90;;;;;;5031156;28;20050;-65
2021/01/06 05:43:17;;;;;;;32.83;8.52;;;3.70;99.90;;;;;;5029805;28;20045;-65
2021/01/06 05:45:54;;;;;;;37.35;9.30;;;3.70;99.90;;;;;;5026513;28;20038;-65
2021/01/06 05:48:31;;;;;;;38.17;10.02;;;3.60;99.90;;;;;;5028918;28;20025;-65
2021/01/06 05:51:07;;;;;;;27.85;8.45;;;3.60;99.90;;;;;;4999097;28;20038;-65
2021/01/06 05:53:54;;;;;;;28.98;8.30;;;3.60;99.90;;;;;;5030408;28;20057;-65
2021/01/06 05:57:00;;;;;;;27.80;8.32;;;3.60;99.90;;;;;;5029728;28;20069;-65
2021/01/06 05:59:46;;;;;;;28.67;8.20;;;3.60;99.90;;;;;;5029093;28;20052;-65
2021/01/06 06:02:37;;;;;;;33.55;8.07;;;3.70;99.90;;;;;;5022818;28;20049;-65
2021/01/06 06:05:37;;;;;;;32.42;8.77;;;3.70;99.90;;;;;;5027987;28;20056;-66
2021/01/06 06:08:31;;;;;;;28.15;9.38;;;3.60;99.90;;;;;;5030395;28;20047;-67
2021/01/06 06:11:32;;;;;;;31.65;8.63;;;3.60;99.90;;;;;;5017753;28;20079;-66
2021/01/06 06:14:34;;;;;;;32.50;9.77;;;3.60;99.90;;;;;;5030400;28;20495;-65
2021/01/06 06:17:27;;;;;;;30.90;8.48;;;3.60;99.90;;;;;;5006971;28;20073;-65
2021/01/06 06:20:18;;;;;;;29.98;8.75;;;3.60;99.90;;;;;;5006637;28;20636;-65
2021/01/06 06:23:03;;;;;;;31.25;8.30;;;3.60;99.90;;;;;;5008624;28;20062;-65
2021/01/06 06:25:39;;;;;;;36.13;8.98;;;3.60;99.90;;;;;;4991750;28;20085;-65
2021/01/06 06:28:20;;;;;;;32.83;9.45;;;3.60;99.90;;;;;;5008680;28;20056;-65
2021/01/06 06:31:11;;;;;;;34.85;9.70;;;3.60;99.90;;;;;;5006464;28;20046;-65
2021/01/06 06:33:37;;;;;;;33.03;8.60;;;3.60;99.90;;;;;;5008457;28;20157;-65
2021/01/06 06:36:12;;;;;;;34.70;9.35;;;3.60;99.90;;;;;;5009072;28;20077;-65
2021/01/06 06:38:41;;;;;;;30.02;9.30;;;3.60;99.90;;;;;;5009450;28;20061;-65
2021/01/06 06:41:10;;;;;;;32.78;8.65;;;3.60;99.90;;;;;;5007087;28;20115;-65
2021/01/06 06:43:47;;;;;;;32.95;10.18;;;3.60;99.90;;;;;;4991763;28;20054;-65
2021/01/06 06:46:35;;;;;;;29.02;8.27;;;3.60;99.90;;;;;;5007246;28;20065;-65
2021/01/06 06:49:22;;;;;;;33.80;10.40;;;3.60;99.90;;;;;;4990559;28;20401;-64
2021/01/06 06:51:55;;;;;;;32.88;9.80;;;3.60;99.90;;;;;;4990508;28;20117;-64
2021/01/06 06:54:33;;;;;;;29.95;10.13;;;3.60;99.90;;;;;;5012087;28;20045;-65
2021/01/06 06:57:14;;;;;;;32.38;10.20;;;3.60;99.90;;;;;;5029156;28;20037;-65
2021/01/06 07:00:15;;;;;;;31.63;9.18;;;3.70;99.90;;;;;;5018000;28;20034;-65
2021/01/06 07:02:51;;;;;;;31.08;8.75;;;3.70;99.90;;;;;;5027544;28;20052;-65
2021/01/06 07:05:29;;;;;;;35.38;8.98;;;3.80;99.90;;;;;;5024360;28;20052;-65
2021/01/06 07:08:01;;;;;;;31.55;9.10;;;3.80;99.90;;;;;;5029682;28;20045;-65
2021/01/06 07:10:32;;;;;;;33.45;10.32;;;3.80;99.90;;;;;;5032092;28;20057;-65
2021/01/06 07:13:06;;;;;;;34.03;10.70;;;3.80;99.90;;;;;;5030620;28;20042;-65
2021/01/06 07:16:05;;;;;;;32.33;9.15;;;3.80;99.90;;;;;;5032798;28;20053;-65
2021/01/06 07:18:41;;;;;;;28.33;8.63;;;3.80;99.90;;;;;;5037780;28;20064;-64
2021/01/06 07:21:17;;;;;;;30.30;8.75;;;3.80;99.90;;;;;;5011565;28;20063;-65
2021/01/06 07:24:03;;;;;;;34.28;8.98;;;3.70;99.90;;;;;;5012559;28;20115;-65
2021/01/06 07:26:39;;;;;;;32.72;8.48;;;3.80;99.90;;;;;;5030931;28;20099;-65
2021/01/06 07:29:12;;;;;;;32.65;9.90;;;3.80;99.90;;;;;;5039484;28;20687;-65
2021/01/06 07:32:15;;;;;;;30.48;9.23;;;3.80;99.90;;;;;;5028338;28;20552;-65
2021/01/06 07:34:42;;;;;;;30.58;9.20;;;3.80;99.90;;;;;;5024029;28;20057;-65
2021/01/06 07:37:24;;;;;;;37.20;9.65;;;3.80;99.90;;;;;;5030221;28;20061;-65
2021/01/06 07:39:59;;;;;;;31.80;9.85;;;3.80;99.90;;;;;;5028597;28;20048;-65
2021/01/06 07:42:42;;;;;;;38.63;10.57;;;3.80;99.90;;;;;;5028351;28;20531;-65
2021/01/06 07:45:29;;;;;;;37.85;9.05;;;3.80;99.90;;;;;;5027307;28;20033;-65
2021/01/06 07:48:25;;;;;;;42.60;10.73;;;3.80;99.90;;;;;;5024599;28;20052;-65
2021/01/06 07:51:11;;;;;;;43.30;10.02;;;3.80;99.90;;;;;;5030966;28;20037;-65
2021/01/06 07:54:09;;;;;;;40.63;10.25;;;3.80;99.90;;;;;;5032977;28;20124;-65
2021/01/06 07:57:00;;;;;;;32.30;8.85;;;3.80;99.90;;;;;;5015966;28;20051;-65
2021/01/06 07:59:55;;;;;;;35.35;9.70;;;3.90;99.90;;;;;;5029940;28;20033;-65
2021/01/06 08:02:35;;;;;;;32.00;8.77;;;3.90;99.90;;;;;;5022321;28;20060;-65
2021/01/06 08:05:02;;;;;;;39.65;10.98;;;3.90;99.90;;;;;;5024347;28;20060;-65
2021/01/06 08:07:28;;;;;;;35.50;9.85;;;4.00;99.90;;;;;;4992304;28;20085;-65
2021/01/06 08:09:55;;;;;;;31.73;9.23;;;4.00;99.90;;;;;;5013528;28;20057;-65
2021/01/06 08:12:39;;;;;;;31.80;8.88;;;4.00;99.90;;;;;;5014339;28;20042;-65
2021/01/06 08:15:18;;;;;;;32.10;9.95;;;3.90;99.90;;;;;;5018443;28;20385;-65
2021/01/06 08:17:53;;;;;;;31.33;9.75;;;4.00;99.90;;;;;;5026513;28;20054;-65
2021/01/06 08:20:44;;;;;;;34.00;9.35;;;4.00;99.90;;;;;;5025163;28;20041;-65
2021/01/06 08:23:25;;;;;;;33.78;9.50;;;4.00;99.90;;;;;;5029999;28;20060;-65
2021/01/06 08:26:24;;;;;;;37.33;11.02;;;4.00;99.90;;;;;;5021875;28;20176;-67
2021/01/06 08:29:06;;;;;;;29.92;10.85;;;4.00;99.90;;;;;;5025504;28;20504;-67
2021/01/06 08:31:35;;;;;;;30.92;9.55;;;4.10;99.90;;;;;;5013980;28;20381;-66
2021/01/06 08:34:02;;;;;;;30.80;10.35;;;4.10;99.90;;;;;;5024245;28;20057;-66
2021/01/06 08:36:39;;;;;;;32.00;9.80;;;4.10;99.90;;;;;;5028173;28;20041;-66
2021/01/06 08:39:17;;;;;;;36.17;9.98;;;4.10;99.90;;;;;;5025837;28;20052;-66
2021/01/06 08:41:46;;;;;;;31.55;10.73;;;4.10;99.90;;;;;;5028093;28;20049;-66
2021/01/06 08:44:35;;;;;;;35.20;11.27;;;4.20;99.90;;;;;;5018092;28;20046;-66
2021/01/06 08:47:05;;;;;;;37.60;9.63;;;4.20;99.90;;;;;;5014434;28;20103;-66
2021/01/06 08:49:44;;;;;;;33.25;9.85;;;4.30;99.90;;;;;;5019918;28;20092;-66
2021/01/06 08:52:17;;;;;;;34.63;10.32;;;4.30;99.90;;;;;;5016571;28;20600;-67
2021/01/06 08:54:46;;;;;;;38.83;12.15;;;4.20;99.90;;;;;;5032507;28;20045;-66
2021/01/06 08:57:27;;;;;;;30.90;10.52;;;4.30;99.90;;;;;;5038837;28;20073;-66
2021/01/06 08:59:53;;;;;;;29.88;9.38;;;4.30;99.90;;;;;;5022175;28;20057;-66
2021/01/06 09:02:33;;;;;;;31.65;10.70;;;4.40;99.90;;;;;;5028384;28;20049;-66
2021/01/06 09:05:00;;;;;;;34.00;11.60;;;4.40;99.90;;;;;;5012013;28;20042;-66
2021/01/06 09:07:33;;;;;;;32.67;9.57;;;4.40;99.90;;;;;;5017195;28;20046;-66
2021/01/06 09:10:16;;;;;;;31.90;10.35;;;4.40;99.90;;;;;;5023934;28;20041;-66
2021/01/06 09:13:08;;;;;;;31.35;9.60;;;4.40;99.90;;;;;;5026655;28;20049;-66
2021/01/06 09:15:41;;;;;;;29.92;9.57;;;4.50;99.90;;;;;;5024818;28;20069;-67
2021/01/06 09:18:24;;;;;;;29.35;9.13;;;4.60;99.90;;;;;;5031360;28;20045;-66
2021/01/06 09:21:13;;;;;;;29.70;9.75;;;4.70;99.90;;;;;;5042481;28;20069;-67
2021/01/06 09:23:42;;;;;;;28.13;7.78;;;4.70;99.90;;;;;;5029528;28;20512;-67
2021/01/06 09:26:13;;;;;;;34.78;9.65;;;4.80;99.90;;;;;;5026431;28;20082;-67
2021/01/06 09:28:43;;;;;;;26.77;8.63;;;4.90;99.90;;;;;;5021236;28;20052;-67
2021/01/06 09:31:12;;;;;;;31.60;8.88;;;4.90;99.90;;;;;;5026788;28;20045;-66
2021/01/06 09:33:41;;;;;;;27.85;8.65;;;5.00;99.90;;;;;;5004526;28;20053;-66
2021/01/06 09:36:08;;;;;;;27.48;9.00;;;5.00;99.90;;;;;;5037461;28;20053;-66
2021/01/06 09:38:46;;;;;;;30.00;9.57;;;5.10;99.90;;;;;;5022634;28;20058;-66
2021/01/06 09:41:18;;;;;;;28.38;9.65;;;5.00;99.90;;;;;;5037182;28;20057;-66
2021/01/06 09:43:47;;;;;;;30.15;11.40;;;5.00;99.90;;;;;;5019744;28;20068;-65
2021/01/06 09:46:33;;;;;;;28.60;9.93;;;5.00;99.90;;;;;;5019640;28;20057;-65
2021/01/06 09:49:16;;;;;;;30.85;8.88;;;5.00;99.90;;;;;;5023254;28;20049;-66
2021/01/06 09:51:55;;;;;;;29.33;8.02;;;5.00;99.90;;;;;;5019723;28;20049;-66
2021/01/06 09:54:24;;;;;;;25.02;8.32;;;5.00;99.90;;;;;;5024692;28;20365;-66
2021/01/06 09:56:52;;;;;;;27.70;8.80;;;5.00;99.90;;;;;;5017483;28;20041;-66
2021/01/06 09:59:33;;;;;;;25.13;8.80;;;5.10;99.90;;;;;;5022617;28;20049;-67
2021/01/06 10:02:03;;;;;;;29.60;9.25;;;5.20;99.90;;;;;;5025014;28;20056;-67
2021/01/06 10:04:38;;;;;;;26.70;9.82;;;5.30;99.90;;;;;;5022846;28;20782;-66
2021/01/06 10:07:27;;;;;;;31.25;10.40;;;5.30;99.90;;;;;;5022415;28;20038;-66
2021/01/06 10:10:15;;;;;;;28.75;9.85;;;5.30;99.90;;;;;;5019495;28;20057;-66
2021/01/06 10:12:47;;;;;;;27.90;10.00;;;5.20;99.90;;;;;;5003540;28;20061;-66
2021/01/06 10:15:33;;;;;;;26.05;8.73;;;5.30;99.90;;;;;;5016479;28;20104;-66
2021/01/06 10:18:33;;;;;;;29.30;9.18;;;5.30;99.90;;;;;;5021195;28;20049;-66
2021/01/06 10:21:36;;;;;;;25.95;8.80;;;5.40;99.90;;;;;;5025152;28;20046;-65
2021/01/06 10:24:17;;;;;;;25.08;8.13;;;5.50;99.90;;;;;;5019963;28;20178;-65
2021/01/06 10:26:54;;;;;;;34.17;10.13;;;5.60;99.90;;;;;;5023588;28;20050;-66
2021/01/06 10:29:38;;;;;;;28.55;8.93;;;5.90;99.90;;;;;;5020656;28;20043;-65
2021/01/06 10:33:11;;;;;;;24.13;8.68;;;6.00;99.90;;;;;;5021162;28;20124;-65
2021/01/06 10:35:41;;;;;;;24.80;8.75;;;6.00;99.90;;;;;;5005992;28;20061;-66
2021/01/06 10:38:33;;;;;;;24.05;8.88;;;6.10;99.90;;;;;;5014658;28;20048;-66
2021/01/06 10:41:31;;;;;;;22.95;8.02;;;6.10;99.90;;;;;;5020749;28;20060;-66
2021/01/06 10:44:21;;;;;;;26.83;8.32;;;6.20;99.90;;;;;;5016489;28;20053;-66
2021/01/06 10:46:49;;;;;;;23.40;8.23;;;6.30;99.90;;;;;;5019923;28;20049;-66
2021/01/06 10:49:19;;;;;;;21.13;6.90;;;6.30;99.90;;;;;;5016561;28;20052;-66
2021/01/06 10:51:58;;;;;;;21.83;7.60;;;6.30;99.90;;;;;;5021328;28;20034;-66
2021/01/06 10:54:39;;;;;;;25.50;8.93;;;6.30;99.90;;;;;;5019055;28;20037;-66
2021/01/06 10:57:31;;;;;;;24.65;9.45;;;6.40;99.90;;;;;;5017287;28;20046;-66
2021/01/06 11:00:04;;;;;;;26.47;9.97;;;6.50;99.90;;;;;;5022958;28;20057;-67
2021/01/06 11:02:54;;;;;;;27.75;9.88;;;6.60;99.90;;;;;;5003573;28;20048;-67
2021/01/06 11:05:33;;;;;;;23.75;9.48;;;6.70;99.90;;;;;;5015724;28;20810;-67
2021/01/06 11:08:18;;;;;;;25.42;9.70;;;6.80;99.90;;;;;;5016678;28;20046;-67
2021/01/06 11:10:59;;;;;;;25.27;9.25;;;6.90;99.90;;;;;;5025625;28;20061;-67
2021/01/06 11:13:49;;;;;;;23.33;8.55;;;7.00;99.90;;;;;;5027920;28;22009;-67
2021/01/06 11:16:21;;;;;;;23.48;8.93;;;7.20;99.90;;;;;;5012665;28;20049;-67
2021/01/06 11:18:52;;;;;;;24.88;9.38;;;7.20;99.90;;;;;;5019732;28;20377;-67
2021/01/06 11:21:24;;;;;;;27.35;10.43;;;7.20;99.90;;;;;;5028615;28;20037;-67
2021/01/06 11:24:03;;;;;;;28.20;9.90;;;7.20;99.90;;;;;;5028914;28;20614;-66
2021/01/06 11:26:44;;;;;;;29.23;9.77;;;7.20;99.90;;;;;;5027357;28;20042;-67
2021/01/06 11:29:11;;;;;;;27.92;9.68;;;7.40;99.90;;;;;;5024592;28;20784;-67
2021/01/06 11:31:41;;;;;;;27.30;9.35;;;7.50;99.90;;;;;;5029316;28;20506;-67
2021/01/06 11:34:09;;;;;;;26.87;9.37;;;7.70;99.90;;;;;;5027581;28;20051;-66
2021/01/06 11:36:52;;;;;;;32.80;12.60;;;7.70;99.90;;;;;;5027290;28;20041;-67
2021/01/06 11:39:28;;;;;;;33.30;13.70;;;7.60;99.90;;;;;;5029903;28;20407;-67
2021/01/06 11:42:02;;;;;;;34.75;13.90;;;7.30;99.90;;;;;;5015126;28;20485;-67
2021/01/06 11:44:37;;;;;;;29.13;12.07;;;7.20;99.90;;;;;;5027797;28;20053;-66
2021/01/06 11:47:20;;;;;;;29.98;11.05;;;7.30;99.90;;;;;;5025838;28;20048;-66
2021/01/06 11:49:56;;;;;;;37.40;12.70;;;7.30;99.90;;;;;;5007346;28;20053;-66
2021/01/06 11:52:40;;;;;;;31.92;12.52;;;7.30;99.90;;;;;;5025963;28;20109;-66
2021/01/06 11:55:13;;;;;;;37.40;13.60;;;7.20;99.90;;;;;;5011657;28;20408;-66
2021/01/06 11:57:43;;;;;;;33.63;11.77;;;7.10;99.90;;;;;;5028615;28;20061;-66
2021/01/06 12:00:46;;;;;;;23.83;10.90;;;7.00;99.90;;;;;;5028171;28;20068;-66
2021/01/06 12:03:15;;;;;;;22.90;10.02;;;6.80;99.90;;;;;;5005581;28;20378;-66
2021/01/06 12:06:02;;;;;;;29.77;10.75;;;6.70;99.90;;;;;;5004353;28;20436;-66
2021/01/06 12:08:57;;;;;;;36.97;12.27;;;6.60;99.90;;;;;;5027489;28;20037;-66
2021/01/06 12:11:35;;;;;;;31.42;12.45;;;6.40;99.90;;;;;;5027922;28;20504;-66
2021/01/06 12:14:24;;;;;;;66.90;23.17;;;6.40;99.90;;;;;;5028520;28;20595;-66
2021/01/06 12:17:13;;;;;;;35.75;16.08;;;6.50;99.90;;;;;;5017798;28;22213;-66
2021/01/06 12:19:58;;;;;;;39.97;18.23;;;6.50;99.90;;;;;;5024304;28;20069;-67
2021/01/06 12:22:26;;;;;;;34.55;13.43;;;6.50;99.90;;;;;;5027631;28;20408;-67
2021/01/06 12:25:26;;;;;;;42.47;19.20;;;6.40;99.90;;;;;;5028072;28;20503;-67
2021/01/06 12:28:26;;;;;;;36.25;15.75;;;6.40;99.90;;;;;;5021119;28;20029;-67
2021/01/06 12:31:23;;;;;;;30.92;13.48;;;6.30;99.90;;;;;;5013297;28;20065;-67
2021/01/06 12:34:07;;;;;;;28.10;12.55;;;6.30;99.90;;;;;;5023197;28;20091;-66
2021/01/06 12:37:02;;;;;;;29.05;13.00;;;6.30;99.90;;;;;;5030658;28;20531;-66
2021/01/06 12:39:37;;;;;;;28.52;10.85;;;6.20;99.90;;;;;;5021822;28;20609;-67
2021/01/06 12:42:04;;;;;;;28.80;11.13;;;6.30;99.90;;;;;;5015017;28;20139;-66
2021/01/06 12:44:34;;;;;;;31.15;12.18;;;6.40;99.90;;;;;;5026493;28;20046;-67
2021/01/06 12:47:14;;;;;;;30.48;11.88;;;6.40;99.90;;;;;;5033184;28;20111;-67
2021/01/06 12:50:17;;;;;;;32.90;12.90;;;6.50;99.90;;;;;;5020088;28;20046;-67
2021/01/06 12:52:50;;;;;;;;;;;6.60;99.90;;;;;;5027982;28;20033;-66
2021/01/06 12:55:51;;;;;;;30.05;12.25;;;6.70;99.90;;;;;;5024220;28;19964;-65
2021/01/06 12:58:25;;;;;;;31.23;12.35;;;6.70;99.90;;;;;;5031431;28;20544;-65
2021/01/06 13:01:17;;;;;;;29.08;12.10;;;6.80;99.90;;;;;;5019742;28;20053;-67
2021/01/06 13:04:05;;;;;;;27.98;10.40;;;6.90;99.90;;;;;;5031315;28;20440;-66
2021/01/06 13:06:39;;;;;;;23.13;9.82;;;7.00;99.90;;;;;;5031407;28;20480;-67
2021/01/06 13:09:11;;;;;;;25.73;10.60;;;7.10;99.90;;;;;;5032069;28;20049;-67
2021/01/06 13:11:37;;;;;;;24.00;9.57;;;7.10;99.90;;;;;;5020869;28;20568;-67
2021/01/06 13:14:16;;;;;;;28.42;10.23;;;7.10;99.90;;;;;;5026075;28;20038;-67
2021/01/06 13:16:51;;;;;;;22.55;9.43;;;7.10;99.90;;;;;;5027254;28;20052;-66
2021/01/06 13:19:20;;;;;;;25.90;10.55;;;7.20;99.90;;;;;;5030417;28;20128;-65
2021/01/06 13:22:11;;;;;;;25.70;9.50;;;7.20;99.90;;;;;;5031547;28;20064;-64
2021/01/06 13:24:40;;;;;;;25.75;9.98;;;7.20;99.90;;;;;;5004002;28;20130;-64
2021/01/06 13:27:44;;;;;;;23.13;9.63;;;7.20;99.90;;;;;;5031748;28;20507;-64
2021/01/06 13:30:34;;;;;;;24.20;9.68;;;7.20;99.90;;;;;;5026928;28;20037;-65
2021/01/06 13:33:13;;;;;;;26.70;10.55;;;7.20;99.90;;;;;;5014065;28;20049;-65
2021/01/06 13:35:42;;;;;;;27.33;10.05;;;7.20;99.90;;;;;;5028806;28;20053;-65
2021/01/06 13:38:15;;;;;;;23.08;9.82;;;7.20;99.90;;;;;;5030108;28;20125;-64